createdAt,value
2019-05-18T00:01:46.746Z,78.13
2019-05-18T00:04:19.922Z,78.53
2019-05-18T00:06:52.295Z,81.57
2019-05-18T00:09:25.082Z,81.10
2019-05-18T00:11:57.695Z,84.23
2019-05-18T00:14:41.763Z,76.17
2019-05-18T00:17:24.923Z,79.07
2019-05-18T00:19:51.041Z,79.77
2019-05-18T00:22:23.471Z,75.97
2019-05-18T00:24:55.947Z,81.20
2019-05-18T00:27:29.308Z,87.17
2019-05-18T00:30:02.163Z,84.20
2019-05-18T00:32:37.921Z,84.70
2019-05-18T00:35:11.053Z,81.93
2019-05-18T00:37:44.605Z,86.93
2019-05-18T00:40:18.042Z,84.40
2019-05-18T00:42:50.742Z,82.40
2019-05-18T00:45:23.526Z,79.87
2019-05-18T00:47:56.978Z,80.97
2019-05-18T00:50:30.595Z,79.50
2019-05-18T00:53:04.802Z,84.70
2019-05-18T00:55:40.189Z,93.17
2019-05-18T00:58:14.054Z,82.13
2019-05-18T01:00:46.883Z,88.30
2019-05-18T01:03:20.584Z,79.00
2019-05-18T01:05:52.779Z,79.50
2019-05-18T01:08:25.478Z,84.43
2019-05-18T01:10:59.405Z,79.50
2019-05-18T01:13:31.711Z,80.80
2019-05-18T01:16:04.184Z,78.63
2019-05-18T01:18:37.195Z,80.70
2019-05-18T01:21:10.693Z,78.87
2019-05-18T01:23:43.783Z,77.27
2019-05-18T01:26:16.731Z,82.10
2019-05-18T01:28:49.094Z,80.97
2019-05-18T01:31:21.039Z,76.57
2019-05-18T01:33:54.440Z,79.40
2019-05-18T01:36:25.934Z,78.40
2019-05-18T01:38:58.630Z,82.67
2019-05-18T01:41:30.936Z,75.73
2019-05-18T01:44:04.608Z,73.07
2019-05-18T01:46:36.399Z,78.30
2019-05-18T01:49:08.997Z,71.40
2019-05-18T01:51:40.834Z,82.60
2019-05-18T01:54:13.420Z,80.53
2019-05-18T01:56:46.161Z,84.83
2019-05-18T01:59:18.408Z,76.90
2019-05-18T02:01:52.120Z,73.13
2019-05-18T02:04:24.834Z,64.60
2019-05-18T02:06:56.843Z,61.13
2019-05-18T02:09:29.842Z,57.70
2019-05-18T02:12:01.828Z,56.93
2019-05-18T02:14:36.166Z,65.17
2019-05-18T02:17:08.828Z,59.93
2019-05-18T02:19:40.770Z,62.60
2019-05-18T02:22:13.890Z,65.53
2019-05-18T02:24:45.921Z,69.40
2019-05-18T02:27:18.664Z,73.23
2019-05-18T02:29:51.014Z,84.67
2019-05-18T02:32:22.917Z,88.03
2019-05-18T02:34:55.960Z,97.20
2019-05-18T02:37:27.788Z,94.07
2019-05-18T02:40:00.444Z,86.00
2019-05-18T02:42:32.692Z,90.80
2019-05-18T02:45:06.143Z,80.63
2019-05-18T02:47:39.021Z,72.90
2019-05-18T02:50:11.959Z,71.47
2019-05-18T02:52:44.481Z,65.47
2019-05-18T02:55:16.881Z,68.10
2019-05-18T02:57:48.951Z,74.07
2019-05-18T03:00:21.510Z,70.13
2019-05-18T03:02:54.278Z,65.23
2019-05-18T03:05:26.315Z,68.93
2019-05-18T03:08:00.131Z,67.77
2019-05-18T03:10:32.677Z,67.10
2019-05-18T03:13:06.454Z,67.93
2019-05-18T03:15:38.387Z,76.20
2019-05-18T03:18:12.162Z,73.77
2019-05-18T03:20:45.390Z,74.03
2019-05-18T03:23:18.635Z,70.83
2019-05-18T03:25:52.442Z,68.90
2019-05-18T03:28:25.147Z,76.20
2019-05-18T03:30:58.199Z,72.00
2019-05-18T03:33:30.506Z,68.43
2019-05-18T03:36:03.924Z,71.00
2019-05-18T03:38:36.222Z,75.27
2019-05-18T03:41:07.659Z,73.23
2019-05-18T03:43:40.926Z,67.00
2019-05-18T03:46:14.910Z,74.70
2019-05-18T03:48:47.276Z,76.37
2019-05-18T03:51:19.295Z,80.70
2019-05-18T03:53:52.300Z,78.17
2019-05-18T03:56:24.647Z,90.27
2019-05-18T03:58:57.659Z,82.47
2019-05-18T04:01:29.824Z,84.63
2019-05-18T04:04:03.035Z,86.20
2019-05-18T04:06:45.139Z,87.63
2019-05-18T04:09:16.612Z,82.57
2019-05-18T04:11:48.826Z,76.17
2019-05-18T04:14:21.373Z,75.93
2019-05-18T04:16:53.357Z,76.57
2019-05-18T04:19:44.334Z,73.07
2019-05-18T04:21:59.440Z,68.73
2019-05-18T04:24:32.619Z,66.03
2019-05-18T04:27:05.916Z,67.43
2019-05-18T04:29:38.370Z,68.97
2019-05-18T04:32:10.355Z,68.73
2019-05-18T04:34:42.275Z,65.57
2019-05-18T04:37:14.100Z,64.20
2019-05-18T04:39:46.597Z,62.20
2019-05-18T04:42:19.334Z,66.97
2019-05-18T04:44:51.207Z,67.70
2019-05-18T04:47:23.974Z,68.87
2019-05-18T04:50:05.215Z,65.93
2019-05-18T04:52:30.774Z,59.43
2019-05-18T04:55:02.690Z,66.90
2019-05-18T04:57:34.190Z,63.80
2019-05-18T05:00:06.359Z,60.90
2019-05-18T05:02:38.396Z,60.70
2019-05-18T05:05:10.412Z,63.23
2019-05-18T05:07:43.401Z,60.90
2019-05-18T05:10:15.269Z,64.33
2019-05-18T05:12:48.334Z,62.10
2019-05-18T05:15:20.587Z,62.87
2019-05-18T05:17:53.417Z,59.23
2019-05-18T05:20:26.226Z,61.00
2019-05-18T05:22:58.948Z,56.17
2019-05-18T05:25:30.847Z,59.33
2019-05-18T05:28:02.852Z,54.37
2019-05-18T05:30:36.329Z,57.30
2019-05-18T05:33:08.869Z,54.70
2019-05-18T05:35:40.730Z,55.43
2019-05-18T05:38:14.487Z,55.63
2019-05-18T05:40:47.080Z,56.97
2019-05-18T05:43:20.028Z,53.13
2019-05-18T05:45:53.311Z,49.87
2019-05-18T05:48:25.278Z,53.07
2019-05-18T05:50:56.843Z,51.50
2019-05-18T05:53:29.657Z,51.20
2019-05-18T05:56:02.174Z,50.40
2019-05-18T05:58:35.162Z,49.00
2019-05-18T06:01:08.972Z,47.00
2019-05-18T06:03:43.152Z,44.37
2019-05-18T06:06:15.859Z,44.60
2019-05-18T06:08:49.330Z,42.53
2019-05-18T06:11:22.249Z,45.03
2019-05-18T06:13:55.455Z,48.13
2019-05-18T06:16:29.641Z,44.93
2019-05-18T06:19:01.467Z,45.47
2019-05-18T06:21:33.875Z,46.53
2019-05-18T06:24:07.652Z,41.70
2019-05-18T06:26:41.994Z,39.17
2019-05-18T06:29:16.863Z,38.90
2019-05-18T06:31:52.445Z,40.33
2019-05-18T06:34:27.138Z,40.40
2019-05-18T06:37:00.596Z,39.33
2019-05-18T06:39:33.791Z,36.37
2019-05-18T06:42:06.654Z,36.13
2019-05-18T06:44:39.431Z,39.20
2019-05-18T06:47:12.420Z,47.03
2019-05-18T06:59:30.582Z,46.90
2019-05-18T07:02:06.442Z,50.23
2019-05-18T07:04:44.598Z,52.23
2019-05-18T07:07:16.219Z,54.70
2019-05-18T07:09:49.034Z,55.97
2019-05-18T07:12:21.613Z,57.17
2019-05-18T07:14:54.871Z,53.13
2019-05-18T07:17:29.244Z,54.23
2019-05-18T07:20:03.646Z,51.50
2019-05-18T07:22:35.849Z,54.70
2019-05-18T07:25:09.026Z,59.20
2019-05-18T07:27:41.114Z,57.00
2019-05-18T07:30:14.538Z,54.23
2019-05-18T07:32:48.477Z,57.60
2019-05-18T07:35:24.170Z,65.33
2019-05-18T07:37:59.442Z,70.90
2019-05-18T07:40:33.213Z,61.40
2019-05-18T07:43:08.570Z,62.63
2019-05-18T07:45:40.939Z,59.40
2019-05-18T07:48:14.017Z,58.03
2019-05-18T07:50:46.015Z,52.87
2019-05-18T07:53:18.512Z,52.37
2019-05-18T07:56:01.459Z,49.70
2019-05-18T07:58:34.319Z,50.20
2019-05-18T08:01:07.275Z,48.73
2019-05-18T08:03:42.185Z,48.40
2019-05-18T08:06:15.326Z,52.47
2019-05-18T08:08:48.323Z,51.83
2019-05-18T08:11:20.838Z,52.60
2019-05-18T08:13:53.694Z,49.23
2019-05-18T08:16:27.775Z,48.20
2019-05-18T08:19:01.663Z,54.90
2019-05-18T08:21:50.686Z,47.27
2019-05-18T08:24:11.965Z,49.23
2019-05-18T08:26:45.935Z,51.33
2019-05-18T08:29:22.303Z,45.57
2019-05-18T08:31:58.219Z,48.67
2019-05-18T08:34:31.640Z,46.27
2019-05-18T08:37:07.501Z,43.07
2019-05-18T08:39:42.042Z,35.23
2019-05-18T08:42:16.141Z,35.83
2019-05-18T08:44:49.930Z,41.03
2019-05-18T08:47:23.845Z,36.73
2019-05-18T08:49:58.239Z,38.30
2019-05-18T08:52:30.599Z,39.33
2019-05-18T08:55:03.282Z,42.00
2019-05-18T08:57:36.241Z,40.47
2019-05-18T09:00:11.243Z,43.30
2019-05-18T09:02:43.862Z,38.97
2019-05-18T09:05:17.110Z,35.00
2019-05-18T09:07:49.845Z,37.67
2019-05-18T09:10:22.593Z,40.20
2019-05-18T09:12:55.482Z,39.03
2019-05-18T09:15:29.157Z,39.80
2019-05-18T09:18:04.960Z,39.37
2019-05-18T09:20:38.843Z,44.27
2019-05-18T09:23:12.015Z,37.00
2019-05-18T09:25:46.082Z,46.23
2019-05-18T09:28:24.192Z,44.73
2019-05-18T09:31:01.783Z,39.30
2019-05-18T09:33:37.127Z,43.13
2019-05-18T09:36:11.068Z,43.23
2019-05-18T09:38:43.511Z,31.17
2019-05-18T09:41:17.322Z,36.33
2019-05-18T09:43:50.140Z,36.13
2019-05-18T09:46:22.939Z,37.47
2019-05-18T09:48:55.991Z,40.63
2019-05-18T09:54:31.424Z,31.53
2019-05-18T09:57:05.117Z,30.40
2019-05-18T09:59:39.179Z,35.13
2019-05-18T10:02:21.798Z,31.77
2019-05-18T10:04:55.259Z,45.23
2019-05-18T10:07:28.539Z,39.13
2019-05-18T10:10:19.647Z,35.23
2019-05-18T10:13:04.022Z,49.10
2019-05-18T10:15:38.071Z,61.13
2019-05-18T10:18:11.205Z,37.03
2019-05-18T10:20:44.899Z,35.20
2019-05-18T10:23:18.273Z,30.67
2019-05-18T10:25:52.088Z,31.33
2019-05-18T10:28:24.958Z,28.63
2019-05-18T10:30:57.698Z,33.77
2019-05-18T10:33:30.947Z,31.17
2019-05-18T10:36:04.034Z,28.73
2019-05-18T10:38:37.883Z,28.53
2019-05-18T10:41:11.582Z,28.83
2019-05-18T10:43:47.055Z,29.60
2019-05-18T10:46:19.424Z,25.80
2019-05-18T10:55:17.192Z,28.00
2019-05-18T10:57:52.858Z,22.33
2019-05-18T11:00:27.196Z,22.60
2019-05-18T11:03:02.764Z,16.43
2019-05-18T11:05:38.114Z,15.93
2019-05-18T11:11:15.094Z,18.67
2019-05-18T11:13:49.191Z,18.37
2019-05-18T11:16:23.555Z,18.57
2019-05-18T11:18:57.461Z,20.30
2019-05-18T11:21:30.947Z,18.80
2019-05-18T11:24:03.383Z,18.40
2019-05-18T11:26:37.518Z,20.30
2019-05-18T11:29:24.969Z,18.90
2019-05-18T11:31:59.310Z,20.33
2019-05-18T11:34:32.418Z,15.37
2019-05-18T11:37:09.718Z,16.03
2019-05-18T11:39:43.448Z,18.77
2019-05-18T11:42:18.492Z,15.23
2019-05-18T11:44:52.166Z,13.50
2019-05-18T11:47:25.306Z,13.20
2019-05-18T11:49:58.874Z,12.77
2019-05-18T11:52:31.638Z,12.90
2019-05-18T11:55:06.389Z,12.60
2019-05-18T11:57:40.688Z,12.97
2019-05-18T12:00:16.520Z,14.07
2019-05-18T12:02:50.542Z,17.10
2019-05-18T12:05:28.101Z,14.60
2019-05-18T12:08:01.284Z,15.30
2019-05-18T12:10:34.285Z,14.03
2019-05-18T12:13:07.752Z,12.63
2019-05-18T12:15:41.603Z,14.00
2019-05-18T12:18:13.645Z,11.80
2019-05-18T12:20:47.588Z,10.23
2019-05-18T12:23:20.224Z,9.93
2019-05-18T12:25:53.168Z,10.03
2019-05-18T12:28:25.152Z,9.60
2019-05-18T12:31:01.983Z,9.37
2019-05-18T12:33:34.019Z,13.87
2019-05-18T12:36:07.537Z,8.23
2019-05-18T12:38:41.078Z,7.43
2019-05-18T12:41:16.322Z,9.50
2019-05-18T12:43:49.823Z,9.20
2019-05-18T12:46:23.618Z,6.90
2019-05-18T12:48:56.964Z,9.00
2019-05-18T12:51:31.112Z,7.07
2019-05-18T12:54:06.568Z,13.03
2019-05-18T12:56:39.949Z,9.53
2019-05-18T12:59:13.808Z,10.10
2019-05-18T13:01:46.926Z,7.60
2019-05-18T13:04:20.538Z,10.80
2019-05-18T13:06:54.116Z,12.10
2019-05-18T13:09:28.719Z,8.53
2019-05-18T13:12:02.255Z,9.93
2019-05-18T13:14:36.262Z,13.27
2019-05-18T13:17:11.169Z,11.60
2019-05-18T13:19:44.904Z,21.77
2019-05-18T13:22:19.471Z,20.97
2019-05-18T13:24:52.449Z,14.40
2019-05-18T13:27:38.329Z,16.40
2019-05-18T13:30:00.652Z,12.23
2019-05-18T13:32:33.305Z,15.13
2019-05-18T13:35:06.858Z,20.17
2019-05-18T13:37:41.551Z,14.03
2019-05-18T13:40:16.217Z,11.63
2019-05-18T13:42:48.688Z,14.00
2019-05-18T13:45:22.444Z,13.17
2019-05-18T13:47:55.070Z,9.80
2019-05-18T13:50:28.293Z,12.20
2019-05-18T13:53:01.913Z,12.60
2019-05-18T13:55:36.099Z,15.90
2019-05-18T13:58:10.089Z,16.27
2019-05-18T14:00:44.173Z,12.20
2019-05-18T14:03:17.682Z,11.07
2019-05-18T14:05:51.928Z,14.33
2019-05-18T14:08:25.315Z,12.60
2019-05-18T14:10:59.214Z,12.17
2019-05-18T14:13:34.679Z,11.43
2019-05-18T14:16:08.706Z,10.83
2019-05-18T14:18:41.012Z,13.27
2019-05-18T14:21:14.683Z,13.90
2019-05-18T14:23:48.350Z,12.50
2019-05-18T14:26:22.654Z,13.43
2019-05-18T14:28:56.661Z,11.33
2019-05-18T14:31:32.751Z,13.07
2019-05-18T14:34:06.347Z,15.57
2019-05-18T14:36:40.385Z,19.07
2019-05-18T14:39:14.025Z,11.90
2019-05-18T14:41:48.385Z,12.97
2019-05-18T14:44:21.015Z,15.03
2019-05-18T14:46:55.201Z,10.87
2019-05-18T14:49:27.967Z,14.03
2019-05-18T14:52:00.731Z,20.40
2019-05-18T14:54:34.879Z,17.17
2019-05-18T14:57:07.934Z,15.50
2019-05-18T14:59:39.998Z,14.97
2019-05-18T15:02:14.528Z,12.17
2019-05-18T15:04:48.085Z,12.57
2019-05-18T15:07:23.107Z,12.97
2019-05-18T15:09:56.328Z,16.50
2019-05-18T15:12:31.627Z,11.83
2019-05-18T15:15:06.600Z,11.60
2019-05-18T15:17:38.946Z,12.13
2019-05-18T15:20:12.747Z,17.43
2019-05-18T15:22:45.992Z,10.33
2019-05-18T15:25:19.575Z,29.07
2019-05-18T15:27:54.171Z,283.80
2019-05-18T15:30:28.930Z,14.50
2019-05-18T15:33:02.946Z,10.13
2019-05-18T15:35:38.723Z,8.97
2019-05-18T15:38:12.174Z,14.10
2019-05-18T15:40:50.467Z,11.17
2019-05-18T15:43:25.377Z,11.60
2019-05-18T15:45:58.327Z,13.83
2019-05-18T15:48:31.843Z,8.93
2019-05-18T15:51:05.518Z,14.30
2019-05-18T15:53:37.487Z,11.57
2019-05-18T15:56:12.485Z,10.07
2019-05-18T15:58:56.287Z,9.43
2019-05-18T16:01:29.872Z,12.10
2019-05-18T16:04:02.830Z,10.17
2019-05-18T16:06:35.530Z,12.10
2019-05-18T16:09:10.674Z,10.50
2019-05-18T16:11:43.185Z,11.67
2019-05-18T16:14:17.668Z,10.00
2019-05-18T16:16:54.968Z,10.53
2019-05-18T16:19:27.937Z,12.27
2019-05-18T16:22:01.381Z,22.10
2019-05-18T16:24:35.189Z,13.57
2019-05-18T16:27:08.250Z,19.80
2019-05-18T16:29:41.309Z,12.57
2019-05-18T16:32:13.722Z,14.07
2019-05-18T16:34:47.730Z,20.20
2019-05-18T16:37:22.702Z,15.43
2019-05-18T16:39:55.978Z,17.33
2019-05-18T16:42:30.409Z,17.40
2019-05-18T16:45:02.527Z,14.50
2019-05-18T16:47:35.906Z,18.33
2019-05-18T16:50:11.286Z,15.33
2019-05-18T16:52:44.522Z,14.80
2019-05-18T16:55:17.869Z,13.97
2019-05-18T16:57:52.545Z,15.73
2019-05-18T17:00:25.729Z,20.07
2019-05-18T17:02:59.109Z,19.33
2019-05-18T17:05:34.306Z,26.43
2019-05-18T17:08:06.937Z,24.10
2019-05-18T17:10:41.552Z,22.70
2019-05-18T17:13:14.887Z,24.53
2019-05-18T17:15:48.990Z,23.43
2019-05-18T17:18:21.003Z,19.30
2019-05-18T17:20:54.943Z,31.20
2019-05-18T17:23:27.544Z,19.30
2019-05-18T17:26:00.719Z,22.27
2019-05-18T17:28:33.730Z,35.30
2019-05-18T17:31:08.320Z,28.20
2019-05-18T17:33:41.295Z,27.03
2019-05-18T17:36:14.736Z,21.67
2019-05-18T17:38:47.046Z,28.30
2019-05-18T17:41:21.150Z,24.00
2019-05-18T17:43:54.166Z,24.37
2019-05-18T17:46:26.569Z,21.07
2019-05-18T17:49:00.100Z,17.13
2019-05-18T17:51:35.562Z,16.37
2019-05-18T17:54:07.898Z,17.37
2019-05-18T17:56:44.404Z,16.23
2019-05-18T17:59:17.424Z,18.07
2019-05-18T18:01:51.395Z,13.83
2019-05-18T18:04:25.378Z,19.53
2019-05-18T18:06:59.150Z,17.43
2019-05-18T18:09:33.277Z,19.47
2019-05-18T18:12:08.611Z,13.07
2019-05-18T18:14:43.465Z,15.60
2019-05-18T18:17:17.860Z,13.13
2019-05-18T18:19:51.387Z,14.17
2019-05-18T18:22:24.039Z,13.53
2019-05-18T18:24:58.090Z,20.70
2019-05-18T18:27:31.311Z,15.47
2019-05-18T18:30:05.488Z,18.10
2019-05-18T18:32:39.418Z,19.27
2019-05-18T18:35:13.646Z,17.67
2019-05-18T18:37:47.326Z,20.80
2019-05-18T18:40:21.116Z,19.70
2019-05-18T18:42:55.582Z,28.83
2019-05-18T18:45:41.041Z,24.47
2019-05-18T18:48:15.088Z,20.20
2019-05-18T18:50:48.475Z,19.80
2019-05-18T18:53:22.206Z,19.13
2019-05-18T18:55:56.534Z,18.07
2019-05-18T18:58:31.078Z,19.07
2019-05-18T19:01:04.413Z,24.30
2019-05-18T19:03:38.362Z,25.53
2019-05-18T19:06:11.510Z,19.57
2019-05-18T19:08:44.316Z,23.23
2019-05-18T19:11:16.742Z,25.50
2019-05-18T19:13:49.580Z,23.50
2019-05-18T19:16:22.667Z,28.57
2019-05-18T19:18:56.378Z,27.47
2019-05-18T19:21:35.273Z,30.30
2019-05-18T19:24:09.256Z,38.63
2019-05-18T19:26:44.114Z,37.50
2019-05-18T19:29:16.584Z,31.20
2019-05-18T19:31:49.269Z,29.03
2019-05-18T19:34:21.635Z,22.27
2019-05-18T19:36:54.748Z,21.50
2019-05-18T19:39:26.746Z,17.37
2019-05-18T19:42:00.492Z,16.43
2019-05-18T19:44:33.891Z,19.57
2019-05-18T19:47:09.190Z,18.57
2019-05-18T19:49:43.143Z,19.77
2019-05-18T19:52:16.178Z,22.60
2019-05-18T19:54:50.017Z,22.43
2019-05-18T19:57:25.377Z,24.97
2019-05-18T19:59:58.722Z,19.50
2019-05-18T20:02:34.652Z,23.20
2019-05-18T20:05:09.143Z,24.93
2019-05-18T20:07:42.557Z,20.57
2019-05-18T20:10:16.507Z,24.47
2019-05-18T20:12:49.183Z,25.53
2019-05-18T20:15:22.229Z,21.17
2019-05-18T20:17:56.317Z,21.17
2019-05-18T20:20:30.246Z,28.93
2019-05-18T20:23:03.457Z,30.10
2019-05-18T20:25:37.997Z,29.73
2019-05-18T20:28:23.479Z,23.10
2019-05-18T20:30:47.255Z,23.90
2019-05-18T20:33:20.510Z,20.07
2019-05-18T20:35:54.112Z,26.47
2019-05-18T20:38:26.402Z,23.83
2019-05-18T20:41:00.767Z,27.33
2019-05-18T20:43:33.978Z,25.40
2019-05-18T20:46:07.136Z,27.57
2019-05-18T20:48:39.654Z,23.40
2019-05-18T20:51:15.476Z,26.60
2019-05-18T20:53:57.150Z,24.00
2019-05-18T20:56:32.021Z,23.20
2019-05-18T20:59:05.425Z,17.47
2019-05-18T21:01:43.237Z,20.73
2019-05-18T21:04:20.648Z,24.17
2019-05-18T21:07:05.025Z,25.13
2019-05-18T21:09:46.233Z,26.13
2019-05-18T21:12:21.499Z,24.87
2019-05-18T21:14:56.139Z,25.53
2019-05-18T21:17:30.759Z,22.03
2019-05-18T21:20:04.622Z,22.50
2019-05-18T21:22:38.874Z,24.90
2019-05-18T21:25:12.281Z,25.90
2019-05-18T21:27:45.888Z,29.47
2019-05-18T21:30:18.879Z,34.23
2019-05-18T21:32:51.972Z,30.53
2019-05-18T21:35:25.190Z,34.53
2019-05-18T21:37:58.025Z,32.73
2019-05-18T21:40:31.300Z,32.17
2019-05-18T21:43:05.287Z,25.83
2019-05-18T21:45:39.159Z,26.23
2019-05-18T21:48:13.413Z,28.73
2019-05-18T21:50:51.909Z,26.20
2019-05-18T21:53:24.455Z,23.70
2019-05-18T21:55:59.254Z,25.33
2019-05-18T21:58:35.011Z,25.17
2019-05-18T22:01:07.583Z,26.63
2019-05-18T22:03:44.653Z,23.23
2019-05-18T22:06:16.096Z,26.33
2019-05-18T22:08:48.572Z,26.30
2019-05-18T22:11:22.072Z,24.83
2019-05-18T22:13:57.012Z,21.93
2019-05-18T22:16:30.823Z,24.00
2019-05-18T22:19:03.222Z,24.20
2019-05-18T22:21:36.580Z,25.50
2019-05-18T22:24:10.823Z,20.27
2019-05-18T22:26:44.083Z,26.20
2019-05-18T22:29:18.454Z,25.87
2019-05-18T22:31:50.715Z,25.20
2019-05-18T22:34:23.171Z,26.47
2019-05-18T22:36:56.285Z,25.87
2019-05-18T22:39:30.148Z,28.17
2019-05-18T22:42:02.900Z,24.30
2019-05-18T22:44:35.986Z,31.13
2019-05-18T22:47:27.484Z,24.37
2019-05-18T22:50:01.332Z,23.90
2019-05-18T22:52:39.294Z,25.00
2019-05-18T22:55:19.403Z,26.30
2019-05-18T22:58:03.381Z,22.70
2019-05-18T23:00:36.071Z,23.10
2019-05-18T23:03:10.530Z,25.07
2019-05-18T23:05:44.055Z,27.03
2019-05-18T23:08:18.359Z,23.83
2019-05-18T23:10:53.084Z,23.73
2019-05-18T23:13:26.458Z,27.63
2019-05-18T23:16:00.346Z,25.60
2019-05-18T23:18:33.880Z,28.97
2019-05-18T23:21:06.577Z,25.30
2019-05-18T23:23:40.380Z,30.83
2019-05-18T23:26:14.043Z,33.10
2019-05-18T23:28:47.326Z,40.90
2019-05-18T23:31:20.316Z,34.70
2019-05-18T23:33:53.116Z,30.60
2019-05-18T23:36:27.087Z,31.80
2019-05-18T23:38:59.739Z,28.97
2019-05-18T23:41:33.315Z,31.00
2019-05-18T23:44:06.823Z,31.23
2019-05-18T23:46:39.242Z,30.87
2019-05-18T23:49:12.857Z,35.90
2019-05-18T23:51:47.503Z,39.37
2019-05-18T23:57:45.458Z,33.33
